Time;durP1;ratioP1;P1;durP2;ratioP2;P2;SDS_P1;SDS_P2;PMS_P1;PMS_P2;Temp;Humidity;BMP_temperature;BMP_pressure;BME280_temperature;BME280_humidity;BME280_pressure;Samples;Min_cycle;Max_cycle;Signal;HPM_P1;HPM_P2
2021/06/11 00:01:08;;;;;;;12.37;6.93;;;12.60;99.90;;;;;;5136009;27;20187;-71
2021/06/11 00:03:55;;;;;;;10.50;6.00;;;12.80;99.90;;;;;;5138487;27;20203;-70
2021/06/11 00:06:41;;;;;;;14.30;6.47;;;12.80;99.90;;;;;;5138546;27;20261;-71
2021/06/11 00:09:30;;;;;;;13.77;6.77;;;12.80;99.90;;;;;;5135415;27;20200;-71
2021/06/11 00:12:17;;;;;;;18.00;6.47;;;12.80;99.90;;;;;;5148029;27;20530;-71
2021/06/11 00:15:05;;;;;;;10.77;6.70;;;12.80;99.90;;;;;;5145310;27;20200;-71
2021/06/11 00:17:53;;;;;;;14.53;6.60;;;12.90;99.90;;;;;;5129130;27;20601;-71
2021/06/11 00:20:39;;;;;;;11.87;7.37;;;12.90;99.90;;;;;;5127311;27;20563;-71
2021/06/11 00:23:26;;;;;;;11.77;6.80;;;12.90;99.90;;;;;;5135168;27;20273;-71
2021/06/11 00:26:15;;;;;;;13.47;7.10;;;12.90;99.90;;;;;;5140528;27;20209;-71
2021/06/11 00:29:03;;;;;;;10.13;6.93;;;12.90;99.40;;;;;;5145031;27;20238;-71
2021/06/11 00:31:50;;;;;;;11.23;5.77;;;12.90;98.10;;;;;;5149582;27;20204;-71
2021/06/11 00:34:37;;;;;;;14.53;6.83;;;12.90;97.70;;;;;;5148252;27;20202;-71
2021/06/11 00:37:24;;;;;;;10.53;6.40;;;12.90;96.60;;;;;;5134081;27;20190;-71
2021/06/11 00:40:12;;;;;;;14.57;7.17;;;12.80;97.20;;;;;;5139684;27;20190;-71
2021/06/11 00:43:00;;;;;;;12.43;6.97;;;12.80;97.30;;;;;;5136114;27;20210;-71
2021/06/11 00:45:48;;;;;;;17.00;7.47;;;12.80;97.70;;;;;;5135174;27;20674;-71
2021/06/11 00:48:35;;;;;;;11.30;6.77;;;12.80;97.00;;;;;;5143019;27;20195;-71
2021/06/11 00:51:22;;;;;;;12.33;7.10;;;12.80;97.90;;;;;;5143177;27;20194;-71
2021/06/11 00:54:09;;;;;;;12.20;6.93;;;12.80;97.40;;;;;;5160699;27;20226;-71
2021/06/11 00:56:56;;;;;;;12.47;6.60;;;12.80;96.40;;;;;;5164826;27;20720;-71
2021/06/11 00:59:45;;;;;;;14.17;7.17;;;12.80;97.00;;;;;;5160582;27;20214;-73
2021/06/11 01:02:32;;;;;;;12.40;7.33;;;12.70;96.50;;;;;;5127318;27;20206;-74
2021/06/11 01:05:19;;;;;;;15.63;7.50;;;12.70;96.10;;;;;;5174316;27;20211;-74
2021/06/11 01:08:06;;;;;;;15.07;7.37;;;12.60;96.50;;;;;;5138302;27;20192;-74
2021/06/11 01:10:53;;;;;;;11.77;6.67;;;12.60;96.30;;;;;;5159082;27;20197;-74
2021/06/11 01:13:41;;;;;;;11.43;6.70;;;12.60;96.70;;;;;;5174617;27;20199;-74
2021/06/11 01:16:29;;;;;;;16.17;7.80;;;12.50;96.20;;;;;;5172530;27;20195;-74
2021/06/11 01:19:16;;;;;;;18.50;7.40;;;12.50;96.70;;;;;;5174829;27;20200;-74
2021/06/11 01:22:06;;;;;;;17.50;7.83;;;12.50;95.80;;;;;;5175195;27;20733;-74
2021/06/11 01:25:00;;;;;;;15.77;8.20;;;12.40;97.90;;;;;;5167590;27;20194;-73
2021/06/11 01:27:49;;;;;;;14.87;7.00;;;12.40;96.90;;;;;;5167459;27;20248;-73
2021/06/11 01:30:36;;;;;;;14.80;7.43;;;12.40;96.30;;;;;;5174350;27;20201;-73
2021/06/11 01:33:24;;;;;;;15.97;8.13;;;12.40;96.90;;;;;;5173199;27;20607;-73
2021/06/11 01:36:12;;;;;;;14.07;7.40;;;12.30;98.00;;;;;;5173672;27;20647;-72
2021/06/11 01:38:59;;;;;;;13.80;7.40;;;12.30;97.60;;;;;;5174643;27;20199;-72
2021/06/11 01:41:46;;;;;;;17.80;8.17;;;12.30;97.70;;;;;;5172666;27;20544;-71
2021/06/11 01:44:34;;;;;;;13.97;8.17;;;12.30;99.90;;;;;;5173778;27;20559;-72
2021/06/11 01:47:22;;;;;;;15.73;8.10;;;12.20;99.10;;;;;;5175183;27;20211;-71
2021/06/11 01:50:10;;;;;;;14.27;8.23;;;12.30;99.90;;;;;;5167365;27;20195;-71
2021/06/11 01:52:57;;;;;;;18.17;8.20;;;12.30;99.90;;;;;;5173980;27;20539;-72
2021/06/11 01:55:45;;;;;;;15.87;7.90;;;12.30;99.90;;;;;;5173518;27;20221;-71
2021/06/11 01:58:32;;;;;;;16.07;9.03;;;12.30;99.90;;;;;;5172816;27;20198;-71
2021/06/11 02:01:20;;;;;;;18.77;8.60;;;12.40;99.90;;;;;;5172736;27;20214;-71
2021/06/11 02:04:07;;;;;;;14.83;8.17;;;12.40;99.90;;;;;;5173551;27;20195;-72
2021/06/11 02:06:54;;;;;;;21.27;8.10;;;12.40;99.90;;;;;;5174353;27;20259;-71
2021/06/11 02:09:42;;;;;;;18.60;8.43;;;12.50;99.90;;;;;;5174178;27;20202;-73
2021/06/11 02:12:29;;;;;;;16.93;7.97;;;12.50;98.00;;;;;;5173740;27;20210;-73
2021/06/11 02:15:16;;;;;;;16.90;7.87;;;12.50;96.00;;;;;;5174431;27;20234;-74
2021/06/11 02:18:05;;;;;;;19.97;7.43;;;12.40;95.00;;;;;;5174117;27;20191;-73
2021/06/11 02:20:52;;;;;;;19.93;7.73;;;12.50;93.50;;;;;;5157921;27;20192;-74
2021/06/11 02:23:39;;;;;;;19.57;7.10;;;12.50;91.20;;;;;;5174144;27;20595;-72
2021/06/11 02:26:26;;;;;;;22.37;7.70;;;12.50;90.40;;;;;;5173700;27;20669;-72
2021/06/11 02:29:13;;;;;;;16.20;6.60;;;12.50;90.70;;;;;;5174160;27;20189;-70
2021/06/11 02:32:01;;;;;;;17.67;6.77;;;12.50;86.60;;;;;;5173748;27;20234;-72
2021/06/11 02:34:49;;;;;;;20.03;7.67;;;12.40;85.40;;;;;;5165668;27;20216;-72
2021/06/11 02:37:37;;;;;;;17.47;6.87;;;12.40;85.60;;;;;;5173599;27;20202;-72
2021/06/11 02:40:24;;;;;;;17.33;6.63;;;12.40;84.40;;;;;;5173050;27;20198;-72
2021/06/11 02:43:13;;;;;;;23.37;7.73;;;12.30;83.60;;;;;;5173501;27;20276;-72
2021/06/11 02:46:03;;;;;;;24.17;8.00;;;12.20;85.70;;;;;;5177394;27;20653;-72
2021/06/11 02:48:52;;;;;;;25.43;8.37;;;12.10;82.70;;;;;;5177864;27;20615;-72
2021/06/11 02:51:43;;;;;;;19.10;7.80;;;12.00;83.70;;;;;;5168880;27;20273;-72
2021/06/11 02:54:32;;;;;;;18.87;6.87;;;12.00;83.40;;;;;;5177251;27;20254;-72
2021/06/11 02:57:23;;;;;;;19.43;8.37;;;11.90;85.80;;;;;;5171896;27;20247;-72
2021/06/11 03:00:11;;;;;;;25.70;7.93;;;11.90;83.10;;;;;;5177518;27;20197;-72
2021/06/11 03:03:04;;;;;;;25.07;7.93;;;11.90;83.90;;;;;;5176866;27;20191;-72
2021/06/11 03:05:52;;;;;;;28.00;8.50;;;11.80;90.50;;;;;;5162679;27;20672;-72
2021/06/11 03:08:42;;;;;;;24.00;7.90;;;11.90;92.60;;;;;;5176333;27;20227;-72
2021/06/11 03:11:30;;;;;;;25.13;9.10;;;11.90;92.20;;;;;;5177423;27;20633;-72
2021/06/11 03:14:17;;;;;;;21.23;7.53;;;11.90;91.90;;;;;;5177383;27;20276;-72
2021/06/11 03:17:04;;;;;;;20.70;7.37;;;11.90;88.50;;;;;;5175626;27;20191;-72
2021/06/11 03:19:55;;;;;;;21.10;7.93;;;11.90;89.00;;;;;;5169746;27;20197;-72
2021/06/11 03:22:46;;;;;;;25.53;7.77;;;11.80;92.00;;;;;;5166909;27;20280;-71
2021/06/11 03:25:38;;;;;;;22.37;7.93;;;11.90;92.90;;;;;;5177136;27;20265;-72
2021/06/11 03:28:28;;;;;;;25.63;8.50;;;11.90;94.50;;;;;;5176915;27;20202;-72
2021/06/11 03:31:19;;;;;;;22.90;7.80;;;12.00;96.90;;;;;;5177052;27;20226;-72
2021/06/11 03:34:07;;;;;;;23.50;7.57;;;12.10;94.70;;;;;;5177413;27;20199;-72
2021/06/11 03:36:54;;;;;;;20.03;8.13;;;12.10;94.60;;;;;;5177602;27;20206;-72
2021/06/11 03:39:44;;;;;;;22.13;7.53;;;12.20;94.40;;;;;;5176383;27;20621;-72
2021/06/11 03:42:33;;;;;;;19.13;8.00;;;12.20;91.90;;;;;;5177500;27;20202;-72
2021/06/11 03:45:20;;;;;;;22.90;7.60;;;12.20;93.10;;;;;;5176015;27;20669;-72
2021/06/11 03:48:07;;;;;;;25.57;7.80;;;12.20;92.90;;;;;;5169765;27;20242;-72
2021/06/11 03:50:54;;;;;;;19.27;7.20;;;12.30;93.80;;;;;;5175060;27;20192;-72
2021/06/11 03:53:42;;;;;;;16.50;6.70;;;12.40;94.60;;;;;;5176799;27;20205;-72
2021/06/11 03:56:30;;;;;;;19.23;6.80;;;12.50;94.80;;;;;;5175784;27;20195;-72
2021/06/11 03:59:19;;;;;;;18.43;6.70;;;12.60;93.40;;;;;;5175345;27;20234;-72
2021/06/11 04:02:06;;;;;;;15.70;6.23;;;12.70;92.00;;;;;;5176536;27;20201;-72
2021/06/11 04:04:53;;;;;;;10.67;5.43;;;12.80;92.40;;;;;;5175855;27;20212;-73
2021/06/11 04:07:45;;;;;;;17.77;5.67;;;12.90;91.80;;;;;;5173631;27;20197;-72
2021/06/11 04:10:34;;;;;;;10.57;6.03;;;13.00;91.70;;;;;;5175260;27;20205;-71
2021/06/11 04:13:25;;;;;;;11.03;5.73;;;13.10;91.00;;;;;;5175333;27;20204;-72
2021/06/11 04:16:16;;;;;;;16.63;5.80;;;13.20;90.40;;;;;;5170913;27;20193;-72
2021/06/11 04:19:03;;;;;;;14.00;5.70;;;13.30;89.00;;;;;;5175655;27;20228;-72
2021/06/11 04:21:51;;;;;;;13.23;5.60;;;13.50;84.80;;;;;;5176552;27;20193;-72
2021/06/11 04:24:38;;;;;;;13.10;5.83;;;13.60;83.40;;;;;;5175728;27;20193;-72
2021/06/11 04:27:26;;;;;;;10.10;5.40;;;13.70;79.50;;;;;;5174951;27;20189;-72
2021/06/11 04:30:14;;;;;;;12.90;5.77;;;13.80;76.60;;;;;;5168092;27;20199;-72
2021/06/11 04:33:10;;;;;;;14.53;7.80;;;13.90;75.00;;;;;;5174421;27;20215;-72
2021/06/11 04:35:58;;;;;;;17.73;7.57;;;14.10;76.00;;;;;;5174614;27;20197;-72
2021/06/11 04:38:56;;;;;;;13.93;7.57;;;14.30;72.40;;;;;;5175239;27;20193;-72
2021/06/11 04:41:43;;;;;;;14.07;7.57;;;14.40;67.50;;;;;;5174266;27;20197;-72
2021/06/11 04:44:33;;;;;;;15.87;8.90;;;14.60;63.90;;;;;;5175069;27;20197;-72
2021/06/11 04:47:20;;;;;;;22.10;9.13;;;14.70;62.70;;;;;;5169781;27;20245;-72
2021/06/11 04:50:10;;;;;;;18.23;9.60;;;14.80;59.10;;;;;;5174968;27;20713;-72
2021/06/11 04:52:57;;;;;;;15.00;9.67;;;14.90;55.30;;;;;;5174378;27;20197;-72
2021/06/11 04:55:44;;;;;;;16.37;10.20;;;15.10;54.50;;;;;;5175489;27;20256;-72
2021/06/11 04:58:31;;;;;;;19.73;10.03;;;15.20;52.60;;;;;;5174865;27;20225;-72
2021/06/11 05:01:18;;;;;;;19.57;11.40;;;15.30;52.10;;;;;;5174581;27;20192;-71
2021/06/11 05:04:05;;;;;;;27.73;12.47;;;15.30;44.90;;;;;;5174232;27;20245;-72
2021/06/11 05:06:54;;;;;;;21.33;12.83;;;15.30;45.60;;;;;;5173504;27;20203;-72
2021/06/11 05:09:41;;;;;;;23.43;13.43;;;15.30;42.60;;;;;;5174237;27;20724;-72
2021/06/11 05:12:28;;;;;;;22.67;13.10;;;15.30;34.00;;;;;;5175308;27;20651;-72
2021/06/11 05:15:16;;;;;;;28.13;13.40;;;15.40;39.70;;;;;;5173997;27;20539;-72
2021/06/11 05:18:04;;;;;;;30.07;13.77;;;15.50;39.40;;;;;;5168133;27;20932;-71
2021/06/11 05:20:51;;;;;;;29.03;13.90;;;15.50;29.00;;;;;;5174295;27;20259;-72
2021/06/11 05:23:40;;;;;;;30.33;13.40;;;15.60;26.60;;;;;;5173913;27;20561;-72
2021/06/11 05:26:27;;;;;;;35.60;14.40;;;15.60;27.80;;;;;;5175284;27;20219;-72
2021/06/11 05:29:14;;;;;;;25.13;12.60;;;15.60;19.60;;;;;;5161267;27;20195;-72
2021/06/11 05:32:01;;;;;;;28.57;14.17;;;15.80;24.50;;;;;;5161093;27;20709;-72
2021/06/11 05:34:48;;;;;;;28.77;14.03;;;15.80;21.30;;;;;;5164849;27;20627;-72
2021/06/11 05:37:35;;;;;;;28.03;14.37;;;15.80;17.30;;;;;;5175224;27;20548;-72
2021/06/11 05:40:24;;;;;;;25.70;14.20;;;15.90;16.60;;;;;;5172313;27;20207;-72
2021/06/11 05:43:11;;;;;;;27.80;12.93;;;16.10;16.60;;;;;;5169423;27;20196;-72
2021/06/11 05:45:58;;;;;;;32.17;13.00;;;16.30;13.30;;;;;;5172022;27;20697;-72
2021/06/11 05:48:45;;;;;;;31.77;12.27;;;16.50;10.70;;;;;;5169091;27;20198;-73
2021/06/11 05:51:32;;;;;;;20.57;11.63;;;16.50;1.00;;;;;;5174021;27;20198;-72
2021/06/11 05:54:19;;;;;;;22.80;12.17;;;16.60;1.00;;;;;;5171461;27;20234;-72
2021/06/11 05:57:08;;;;;;;26.30;11.00;;;16.70;1.00;;;;;;5173816;27;20187;-72
2021/06/11 05:59:56;;;;;;;26.47;11.87;;;16.80;1.00;;;;;;5165974;27;20197;-71
2021/06/11 06:02:43;;;;;;;30.00;11.97;;;16.90;1.00;;;;;;5173770;27;20212;-70
2021/06/11 06:05:30;;;;;;;24.43;11.73;;;17.10;1.00;;;;;;5174506;27;20190;-70
2021/06/11 06:08:17;;;;;;;29.37;11.30;;;17.10;1.00;;;;;;5165460;27;20197;-70
2021/06/11 06:11:04;;;;;;;27.67;10.90;;;17.30;1.00;;;;;;5168691;27;20199;-70
2021/06/11 06:13:53;;;;;;;21.40;12.23;;;17.60;1.00;;;;;;5174293;27;20527;-70
2021/06/11 06:16:40;;;;;;;22.07;11.63;;;17.60;1.00;;;;;;5173727;27;20220;-71
2021/06/11 06:19:27;;;;;;;22.20;13.13;;;17.70;1.00;;;;;;5175270;27;20195;-71
2021/06/11 06:22:14;;;;;;;24.83;11.67;;;17.90;1.00;;;;;;5177581;27;20241;-69
2021/06/11 06:25:01;;;;;;;23.60;12.47;;;18.00;1.00;;;;;;5173001;27;20245;-70
2021/06/11 06:27:50;;;;;;;21.17;12.10;;;18.10;1.00;;;;;;5176104;27;20226;-71
2021/06/11 06:30:39;;;;;;;22.30;11.83;;;18.10;1.00;;;;;;5175125;27;20204;-71
2021/06/11 06:33:26;;;;;;;22.50;12.37;;;18.10;1.00;;;;;;5177886;27;20204;-70
2021/06/11 06:36:13;;;;;;;25.90;17.77;;;18.10;1.00;;;;;;5177676;27;20249;-70
2021/06/11 06:39:03;;;;;;;24.47;13.53;;;18.20;1.00;;;;;;5177841;27;20205;-70
2021/06/11 06:41:50;;;;;;;20.20;11.23;;;18.50;1.00;;;;;;5169879;27;20191;-70
2021/06/11 06:44:39;;;;;;;17.67;11.40;;;18.60;1.00;;;;;;5172231;27;20204;-70
2021/06/11 06:47:28;;;;;;;22.23;13.00;;;18.70;1.00;;;;;;5176413;27;20623;-71
2021/06/11 06:50:16;;;;;;;24.07;14.03;;;18.90;1.00;;;;;;5177697;27;20194;-70
2021/06/11 06:53:05;;;;;;;22.20;11.97;;;18.90;1.00;;;;;;5178092;27;20240;-70
2021/06/11 06:55:52;;;;;;;18.93;10.40;;;19.00;1.00;;;;;;5176921;27;20198;-70
2021/06/11 06:58:39;;;;;;;22.90;9.73;;;19.20;1.00;;;;;;5168762;27;20211;-70
2021/06/11 07:01:26;;;;;;;18.80;9.57;;;19.40;1.00;;;;;;5176502;27;20598;-70
2021/06/11 07:04:14;;;;;;;18.27;9.30;;;19.60;1.00;;;;;;5171895;27;20204;-70
2021/06/11 07:07:02;;;;;;;18.17;9.70;;;19.70;1.00;;;;;;5174793;27;20242;-70
2021/06/11 07:09:48;;;;;;;20.97;9.20;;;19.70;1.00;;;;;;5176944;27;20199;-71
2021/06/11 07:12:36;;;;;;;19.10;9.33;;;19.60;1.00;;;;;;5166681;27;20222;-71
2021/06/11 07:15:23;;;;;;;16.40;9.17;;;19.80;1.00;;;;;;5176405;27;20200;-70
2021/06/11 07:18:10;;;;;;;13.33;8.33;;;20.10;1.00;;;;;;5177183;27;20197;-70
2021/06/11 07:20:59;;;;;;;22.93;10.03;;;20.30;1.00;;;;;;5176443;27;20203;-70
2021/06/11 07:23:46;;;;;;;15.27;8.17;;;20.40;99.90;;;;;;5164993;27;20198;-70
2021/06/11 07:26:35;;;;;;;13.20;7.43;;;20.50;99.90;;;;;;5155980;27;20213;-70
2021/06/11 07:29:23;;;;;;;14.53;8.00;;;20.70;99.90;;;;;;5173472;27;20537;-70
2021/06/11 07:32:11;;;;;;;12.73;6.97;;;20.80;99.90;;;;;;5176255;27;20201;-70
2021/06/11 07:34:58;;;;;;;14.60;6.93;;;21.00;99.90;;;;;;5175571;27;20193;-70
2021/06/11 07:37:46;;;;;;;11.53;7.07;;;21.30;99.90;;;;;;5177168;27;20654;-70
2021/06/11 07:40:33;;;;;;;9.70;6.07;;;21.50;47.70;;;;;;5173833;27;20236;-70
2021/06/11 07:43:20;;;;;;;9.93;6.43;;;21.60;1.00;;;;;;5171545;27;20190;-69
2021/06/11 07:46:07;;;;;;;10.40;6.20;;;21.60;99.90;;;;;;5172308;27;20752;-70
2021/06/11 07:48:54;;;;;;;10.40;6.30;;;21.60;99.90;;;;;;5175720;27;20193;-70
2021/06/11 07:51:42;;;;;;;10.80;6.80;;;21.60;99.90;;;;;;5170572;27;20252;-70
2021/06/11 07:54:30;;;;;;;7.80;5.00;;;21.90;99.90;;;;;;5175762;27;20220;-70
2021/06/11 07:57:17;;;;;;;10.83;5.30;;;21.80;97.60;;;;;;5172837;27;20200;-70
2021/06/11 08:00:05;;;;;;;7.40;5.20;;;21.80;1.00;;;;;;5176161;27;20246;-70
2021/06/11 08:02:54;;;;;;;8.90;6.03;;;21.80;1.00;;;;;;5176376;27;20201;-70
2021/06/11 08:05:41;;;;;;;8.00;4.93;;;22.00;1.00;;;;;;5176330;27;20201;-70
2021/06/11 08:08:29;;;;;;;8.00;5.40;;;22.30;1.00;;;;;;5175754;27;20273;-70
2021/06/11 08:11:17;;;;;;;7.00;4.27;;;22.30;1.00;;;;;;5175356;27;20196;-70
2021/06/11 08:14:04;;;;;;;7.00;4.33;;;22.40;1.00;;;;;;5167985;27;20261;-70
2021/06/11 08:16:51;;;;;;;6.43;4.17;;;22.50;99.90;;;;;;5176306;27;20193;-70
2021/06/11 08:19:39;;;;;;;7.27;4.00;;;22.70;99.90;;;;;;5175331;27;20238;-70
2021/06/11 08:22:26;;;;;;;9.17;4.40;;;22.80;99.90;;;;;;5169033;27;20196;-70
2021/06/11 08:25:13;;;;;;;6.63;4.13;;;22.50;1.00;;;;;;5175664;27;20196;-70
2021/06/11 08:28:01;;;;;;;9.23;3.60;;;22.10;71.70;;;;;;5174405;27;20677;-70
2021/06/11 08:30:48;;;;;;;7.97;3.40;;;21.90;1.00;;;;;;5166723;27;20189;-70
2021/06/11 08:33:35;;;;;;;6.77;3.63;;;22.20;1.00;;;;;;5175201;27;20204;-70
2021/06/11 08:36:22;;;;;;;10.63;4.17;;;23.00;99.90;;;;;;5175348;27;20189;-70
2021/06/11 08:39:09;;;;;;;10.23;4.00;;;23.40;99.90;;;;;;5174866;27;20711;-70
2021/06/11 08:41:57;;;;;;;8.73;3.73;;;23.40;1.00;;;;;;5171159;27;20220;-71
2021/06/11 08:44:45;;;;;;;10.27;4.27;;;23.10;1.00;;;;;;5174947;27;20193;-71
2021/06/11 08:47:33;;;;;;;6.20;3.83;;;22.90;1.00;;;;;;5161054;27;20217;-70
2021/06/11 08:50:20;;;;;;;10.20;4.10;;;23.20;1.00;;;;;;5173936;27;20197;-70
2021/06/11 08:53:08;;;;;;;4.33;3.37;;;23.90;1.00;;;;;;5169268;27;20200;-70
2021/06/11 08:55:55;;;;;;;6.03;3.97;;;23.90;1.00;;;;;;5173689;27;20194;-69
2021/06/11 08:58:42;;;;;;;9.00;4.10;;;24.00;99.90;;;;;;5175028;27;20212;-70
2021/06/11 09:01:31;;;;;;;6.80;4.40;;;24.30;98.50;;;;;;5173723;27;20640;-70
2021/06/11 09:04:34;;;;;;;6.80;4.00;;;24.70;99.90;;;;;;5174276;27;20200;-70
2021/06/11 09:07:23;;;;;;;9.53;4.43;;;25.10;38.10;;;;;;5173731;27;20236;-71
2021/06/11 09:10:11;;;;;;;6.53;3.70;;;25.30;1.00;;;;;;5175704;27;20197;-71
2021/06/11 09:12:58;;;;;;;5.77;3.80;;;25.50;1.00;;;;;;5173781;27;20201;-72
2021/06/11 09:15:45;;;;;;;5.35;3.40;;;25.70;1.00;;;;;;5173607;27;20607;-71
2021/06/11 09:18:42;;;;;;;6.68;3.42;;;25.70;1.00;;;;;;5174015;27;20197;-70
2021/06/11 09:21:37;;;;;;;5.95;3.50;;;25.20;1.00;;;;;;5173634;27;20202;-71
2021/06/11 09:24:24;;;;;;;4.75;3.40;;;24.90;1.00;;;;;;5171965;27;20664;-70
2021/06/11 09:27:12;;;;;;;8.10;3.70;;;24.40;99.90;;;;;;5175077;27;20300;-70
2021/06/11 09:30:01;;;;;;;7.70;3.40;;;24.10;99.90;;;;;;5174257;27;20189;-70
2021/06/11 09:32:58;;;;;;;6.03;3.13;;;24.50;1.00;;;;;;5173948;27;20205;-70
2021/06/11 09:35:47;;;;;;;4.70;3.60;;;25.40;1.00;;;;;;5174440;27;20249;-70
2021/06/11 09:38:34;;;;;;;10.15;3.63;;;25.90;99.90;;;;;;5166487;27;20193;-72
2021/06/11 09:41:21;;;;;;;7.18;3.45;;;25.80;99.90;;;;;;5174346;27;20237;-72
2021/06/11 09:44:08;;;;;;;4.85;3.25;;;25.60;99.90;;;;;;5174260;27;20279;-73
2021/06/11 09:46:55;;;;;;;7.18;3.80;;;26.00;99.90;;;;;;5172194;27;20217;-70
2021/06/11 09:49:43;;;;;;;6.15;3.42;;;26.20;99.90;;;;;;5165940;27;20197;-70
2021/06/11 09:52:35;;;;;;;4.32;3.25;;;26.80;99.90;;;;;;5174367;27;20197;-70
2021/06/11 09:55:26;;;;;;;13.80;4.20;;;26.40;99.90;;;;;;5176989;27;20228;-70
2021/06/11 09:58:17;;;;;;;6.85;3.55;;;25.30;99.90;;;;;;5178391;27;20272;-71
2021/06/11 10:01:09;;;;;;;4.85;3.15;;;25.10;99.90;;;;;;5169691;27;20193;-72
2021/06/11 10:03:58;;;;;;;6.68;3.08;;;25.30;99.90;;;;;;5178536;27;20711;-70
2021/06/11 10:06:45;;;;;;;4.53;3.25;;;25.50;20.00;;;;;;5171398;27;20224;-70
2021/06/11 10:09:33;;;;;;;5.05;2.78;;;26.00;89.30;;;;;;5177401;27;20208;-71
2021/06/11 10:12:20;;;;;;;5.47;2.88;;;26.00;25.70;;;;;;5169946;27;20201;-70
2021/06/11 10:15:09;;;;;;;6.07;2.90;;;26.50;1.00;;;;;;5178253;27;20193;-70
2021/06/11 10:17:56;;;;;;;3.97;2.80;;;27.30;27.30;;;;;;5175522;27;20286;-70
2021/06/11 10:20:43;;;;;;;4.78;2.83;;;27.50;1.00;;;;;;5178190;27;20193;-70
2021/06/11 10:23:31;;;;;;;6.00;3.30;;;27.60;1.00;;;;;;5177833;27;20201;-72
2021/06/11 10:26:19;;;;;;;4.05;3.05;;;27.10;1.00;;;;;;5178223;27;20209;-71
2021/06/11 10:29:06;;;;;;;6.32;3.50;;;26.10;1.00;;;;;;5177681;27;20220;-70
2021/06/11 10:31:53;;;;;;;5.80;3.22;;;25.40;1.00;;;;;;5177783;27;20608;-71
2021/06/11 10:34:53;;;;;;;4.32;3.10;;;25.10;1.00;;;;;;5177010;27;20197;-70
2021/06/11 10:37:41;;;;;;;6.53;3.20;;;24.60;1.00;;;;;;5176858;27;20221;-71
2021/06/11 10:40:33;;;;;;;6.17;3.23;;;23.90;1.00;;;;;;5176742;27;20543;-71
2021/06/11 10:43:30;;;;;;;7.53;3.40;;;23.50;1.00;;;;;;5168499;27;20194;-71
2021/06/11 10:46:23;;;;;;;6.70;3.30;;;23.20;1.00;;;;;;5178241;27;20224;-71
2021/06/11 10:49:11;;;;;;;5.83;3.43;;;23.10;1.00;;;;;;5171453;27;20275;-71
2021/06/11 10:51:59;;;;;;;6.30;3.23;;;22.90;1.00;;;;;;5177516;27;20204;-70
2021/06/11 10:54:46;;;;;;;4.53;3.30;;;22.60;1.00;;;;;;5176150;27;20217;-70
2021/06/11 10:57:33;;;;;;;9.20;3.80;;;22.20;57.50;;;;;;5176614;27;20185;-70
2021/06/11 11:00:33;;;;;;;6.77;3.80;;;21.60;99.90;;;;;;5174705;27;20197;-71
2021/06/11 11:03:41;;;;;;;6.53;3.70;;;21.30;99.90;;;;;;5168885;27;20201;-71
2021/06/11 11:06:32;;;;;;;4.40;3.27;;;21.10;99.90;;;;;;5176232;27;20656;-71
2021/06/11 11:09:19;;;;;;;3.80;3.00;;;21.10;99.90;;;;;;5177634;27;20193;-71
2021/06/11 11:12:07;;;;;;;5.03;2.90;;;21.30;99.90;;;;;;5176807;27;20257;-71
2021/06/11 11:14:54;;;;;;;6.53;3.47;;;21.50;99.90;;;;;;5176698;27;20245;-72
2021/06/11 11:17:54;;;;;;;5.57;3.40;;;21.70;99.90;;;;;;5176529;27;20650;-71
2021/06/11 11:20:42;;;;;;;5.97;3.30;;;22.00;1.00;;;;;;5177627;27;20200;-72
2021/06/11 11:23:30;;;;;;;10.40;3.70;;;21.90;1.00;;;;;;5176250;27;20631;-72
2021/06/11 11:26:17;;;;;;;7.43;3.80;;;21.40;99.90;;;;;;5177133;27;20220;-72
2021/06/11 11:29:04;;;;;;;5.83;3.90;;;20.80;92.80;;;;;;5171686;27;20249;-73
2021/06/11 11:31:51;;;;;;;6.97;4.00;;;20.10;99.90;;;;;;5176901;27;20639;-73
2021/06/11 11:34:40;;;;;;;6.20;3.87;;;19.70;99.90;;;;;;5177456;27;20641;-73
2021/06/11 11:37:27;;;;;;;7.67;3.80;;;19.20;1.00;;;;;;5175828;27;20228;-73
2021/06/11 11:40:14;;;;;;;4.00;3.07;;;18.90;1.00;;;;;;5177336;27;20301;-72
2021/06/11 11:43:01;;;;;;;8.80;3.53;;;18.60;1.00;;;;;;5175483;27;20203;-72
2021/06/11 11:45:48;;;;;;;5.00;3.00;;;18.40;1.00;;;;;;5175774;27;20230;-72
2021/06/11 11:48:35;;;;;;;5.30;2.90;;;18.30;1.00;;;;;;5173033;27;20681;-72
2021/06/11 11:51:24;;;;;;;4.57;2.83;;;18.30;1.00;;;;;;5176812;27;20227;-72
2021/06/11 11:54:11;;;;;;;5.90;3.30;;;18.30;1.00;;;;;;5175607;27;20225;-73
2021/06/11 11:56:58;;;;;;;5.60;3.10;;;18.40;1.00;;;;;;5176717;27;20187;-72
2021/06/11 11:59:45;;;;;;;6.60;3.50;;;18.50;1.00;;;;;;5172117;27;20196;-72
2021/06/11 12:02:32;;;;;;;7.97;3.87;;;18.80;1.00;;;;;;5176063;27;20244;-71
2021/06/11 12:05:19;;;;;;;9.00;4.20;;;19.20;1.00;;;;;;5176594;27;20198;-70
2021/06/11 12:08:09;;;;;;;7.77;3.70;;;19.50;1.00;;;;;;5176589;27;20210;-71
2021/06/11 12:10:57;;;;;;;6.07;3.43;;;20.00;1.00;;;;;;5175900;27;20546;-70
2021/06/11 12:13:45;;;;;;;5.93;3.43;;;20.50;1.00;;;;;;5176928;27;20242;-70
2021/06/11 12:16:32;;;;;;;3.60;3.00;;;21.10;1.00;;;;;;5174823;27;20204;-70
2021/06/11 12:19:19;;;;;;;7.83;3.30;;;21.60;1.00;;;;;;5175289;27;20200;-70
2021/06/11 12:22:06;;;;;;;3.47;3.00;;;21.90;1.00;;;;;;5168520;27;20196;-70
2021/06/11 12:24:54;;;;;;;9.20;3.10;;;22.20;99.90;;;;;;5175787;27;20659;-70
2021/06/11 12:27:42;;;;;;;3.30;2.83;;;22.30;1.00;;;;;;5175528;27;20209;-70
2021/06/11 12:30:29;;;;;;;4.83;2.53;;;22.40;1.00;;;;;;5174842;27;20185;-70
2021/06/11 12:33:16;;;;;;;3.17;2.70;;;22.30;1.00;;;;;;5168862;27;20262;-70
2021/06/11 12:36:05;;;;;;;3.93;3.07;;;22.20;1.00;;;;;;5175240;27;20796;-70
2021/06/11 12:38:52;;;;;;;5.43;3.10;;;22.60;1.00;;;;;;5175304;27;20631;-71
2021/06/11 12:41:41;;;;;;;5.47;3.20;;;22.90;99.90;;;;;;5175407;27;20527;-70
2021/06/11 12:44:28;;;;;;;6.47;3.43;;;23.20;99.90;;;;;;5176144;27;20221;-70
2021/06/11 12:47:16;;;;;;;4.50;3.00;;;23.10;1.00;;;;;;5174376;27;20221;-70
2021/06/11 12:50:03;;;;;;;3.97;2.80;;;23.30;1.00;;;;;;5174733;27;20189;-70
2021/06/11 12:52:50;;;;;;;5.33;3.20;;;23.40;1.00;;;;;;5175349;27;20647;-70
2021/06/11 12:55:40;;;;;;;3.57;3.07;;;23.60;1.00;;;;;;5175556;27;20229;-70
2021/06/11 12:58:28;;;;;;;4.57;3.00;;;23.80;1.00;;;;;;5175725;27;20217;-70
2021/06/11 13:01:15;;;;;;;4.23;2.70;;;23.80;99.90;;;;;;5165456;27;20193;-70
2021/06/11 13:04:02;;;;;;;3.53;2.90;;;24.10;99.90;;;;;;5166680;27;20280;-70
2021/06/11 13:06:50;;;;;;;5.00;3.00;;;24.00;99.90;;;;;;5174814;27;20254;-70
2021/06/11 13:09:37;;;;;;;3.10;2.80;;;24.20;1.00;;;;;;5172991;27;20753;-69
2021/06/11 13:12:24;;;;;;;4.33;3.00;;;24.10;99.90;;;;;;5173584;27;20185;-69
2021/06/11 13:15:14;;;;;;;6.27;2.87;;;24.20;1.00;;;;;;5167854;27;20205;-70
2021/06/11 13:18:01;;;;;;;4.00;2.60;;;24.10;1.00;;;;;;5174084;27;20196;-70
2021/06/11 13:20:50;;;;;;;3.07;2.60;;;23.80;1.00;;;;;;5173969;27;20204;-70
2021/06/11 13:23:37;;;;;;;3.00;2.67;;;23.60;23.20;;;;;;5174954;27;20233;-69
2021/06/11 13:26:24;;;;;;;3.37;2.93;;;23.20;1.00;;;;;;5174269;27;20216;-69
2021/06/11 13:29:11;;;;;;;3.40;2.97;;;22.90;1.00;;;;;;5173386;27;20511;-70
2021/06/11 13:32:00;;;;;;;4.77;3.03;;;22.10;99.90;;;;;;5174234;27;20212;-69
2021/06/11 13:34:49;;;;;;;8.10;3.07;;;21.70;1.00;;;;;;5174381;27;20249;-69
2021/06/11 13:37:36;;;;;;;4.93;2.93;;;20.90;99.90;;;;;;5169939;27;20201;-70
2021/06/11 13:40:23;;;;;;;5.60;3.40;;;20.30;1.00;;;;;;5173397;27;20662;-69
2021/06/11 13:43:10;;;;;;;5.33;3.70;;;19.90;99.90;;;;;;5174420;27;20549;-70
2021/06/11 13:45:57;;;;;;;5.40;3.60;;;19.80;99.90;;;;;;5173078;27;20216;-69
2021/06/11 13:48:46;;;;;;;8.47;3.63;;;19.60;99.90;;;;;;5172038;27;20202;-70
2021/06/11 13:51:33;;;;;;;4.90;3.63;;;19.50;1.00;;;;;;5172670;27;20630;-69
2021/06/11 13:54:20;;;;;;;5.47;4.00;;;19.40;1.00;;;;;;5174605;27;20259;-71
2021/06/11 13:57:07;;;;;;;5.87;3.90;;;19.40;1.00;;;;;;5173252;27;20542;-72
2021/06/11 13:59:54;;;;;;;8.60;4.60;;;19.40;1.00;;;;;;5171883;27;20231;-71
2021/06/11 14:02:42;;;;;;;13.33;4.40;;;19.40;1.00;;;;;;5173741;27;20204;-70
2021/06/11 14:05:30;;;;;;;8.80;4.37;;;19.50;1.00;;;;;;5173195;27;20192;-70
2021/06/11 14:08:17;;;;;;;8.43;4.50;;;19.50;1.00;;;;;;5172825;27;20248;-69
2021/06/11 14:11:04;;;;;;;8.50;5.50;;;19.50;1.00;;;;;;5174091;27;20200;-70
2021/06/11 14:13:52;;;;;;;10.67;5.93;;;19.60;1.00;;;;;;5173820;27;20228;-69
2021/06/11 14:16:39;;;;;;;11.20;7.00;;;19.60;1.00;;;;;;5172430;27;20196;-71
2021/06/11 14:19:26;;;;;;;10.10;6.13;;;19.70;1.00;;;;;;5173449;27;20190;-70
2021/06/11 14:22:14;;;;;;;6.70;5.20;;;19.90;1.00;;;;;;5171815;27;20566;-70
2021/06/11 14:25:01;;;;;;;6.70;5.20;;;19.80;1.00;;;;;;5167477;27;20219;-70
2021/06/11 14:27:49;;;;;;;8.53;4.60;;;19.80;1.00;;;;;;5172193;27;20211;-70
2021/06/11 14:30:36;;;;;;;7.73;4.30;;;19.80;1.00;;;;;;5172183;27;20223;-70